Time;durP1;ratioP1;P1;durP2;ratioP2;P2;SDS_P1;SDS_P2;PMS_P1;PMS_P2;Temp;Humidity;BMP_temperature;BMP_pressure;BME280_temperature;BME280_humidity;BME280_pressure;Samples;Min_cycle;Max_cycle;Signal;HPM_P1;HPM_P2
2023/02/09 00:01:14;;;;;;;9.45;1.80;;;25.00;99.90;;;;;;5006836;28;20034;-65
2023/02/09 00:03:43;;;;;;;8.20;2.13;;;25.00;99.90;;;;;;5006421;28;20030;-65
2023/02/09 00:06:15;;;;;;;7.45;1.38;;;24.90;99.90;;;;;;5011586;28;20056;-64
2023/02/09 00:08:43;;;;;;;3.22;0.85;;;24.70;99.90;;;;;;5009770;28;20038;-64
2023/02/09 00:13:21;;;;;;;4.00;1.20;;;24.60;99.90;;;;;;5012620;28;20418;-65
2023/02/09 00:14:12;;;;;;;7.70;1.40;;;24.50;99.90;;;;;;5008710;28;20095;-65
2023/02/09 00:16:39;;;;;;;8.10;1.48;;;24.30;99.90;;;;;;5017238;28;20080;-64
2023/02/09 00:19:07;;;;;;;5.53;1.50;;;24.20;99.90;;;;;;5014417;28;20025;-64
2023/02/09 00:21:35;;;;;;;5.53;1.85;;;24.20;99.90;;;;;;5011378;28;20025;-64
2023/02/09 00:24:02;;;;;;;9.00;1.73;;;24.10;99.90;;;;;;5013620;28;20036;-65
2023/02/09 00:26:30;;;;;;;6.25;1.50;;;24.00;99.90;;;;;;5011950;28;20410;-64
2023/02/09 00:28:57;;;;;;;6.97;1.77;;;23.90;99.90;;;;;;5014408;28;20032;-64
2023/02/09 00:31:25;;;;;;;9.65;1.67;;;23.90;99.90;;;;;;5014466;28;20479;-64
2023/02/09 00:33:52;;;;;;;6.88;1.23;;;23.70;99.90;;;;;;5016256;28;20040;-64
2023/02/09 00:36:20;;;;;;;7.85;1.73;;;23.80;99.90;;;;;;5013709;28;20057;-64
2023/02/09 00:38:47;;;;;;;6.78;1.38;;;24.00;99.90;;;;;;5009983;28;20097;-65
2023/02/09 00:41:16;;;;;;;5.95;1.48;;;24.20;99.90;;;;;;5023914;28;20029;-65
2023/02/09 00:43:43;;;;;;;9.65;1.58;;;24.50;99.90;;;;;;5012323;28;20087;-65
2023/02/09 00:46:11;;;;;;;7.80;1.80;;;24.70;99.90;;;;;;5009233;28;20045;-65
2023/02/09 00:48:38;;;;;;;15.70;2.08;;;25.10;99.90;;;;;;5011548;28;20052;-64
2023/02/09 00:51:05;;;;;;;4.30;1.60;;;25.40;99.90;;;;;;5019627;28;20069;-62
2023/02/09 00:53:33;;;;;;;4.88;1.08;;;25.70;99.90;;;;;;5010003;28;20383;-63
2023/02/09 00:56:00;;;;;;;7.15;1.42;;;26.10;99.90;;;;;;5014405;28;20026;-63
2023/02/09 00:58:27;;;;;;;7.00;1.50;;;26.50;99.90;;;;;;5007116;28;20077;-63
2023/02/09 01:00:55;;;;;;;7.32;1.88;;;26.80;99.90;;;;;;5008286;28;20458;-63
2023/02/09 01:03:22;;;;;;;4.90;1.08;;;27.40;99.90;;;;;;5011748;28;20029;-63
2023/02/09 01:05:49;;;;;;;4.28;1.00;;;27.80;99.90;;;;;;5012932;28;20049;-65
2023/02/09 01:08:16;;;;;;;5.50;1.60;;;28.20;99.90;;;;;;5011303;28;20025;-64
2023/02/09 01:10:44;;;;;;;5.55;1.83;;;28.60;99.90;;;;;;5015753;28;20943;-66
2023/02/09 01:13:11;;;;;;;4.78;1.13;;;29.00;99.90;;;;;;5010648;28;20029;-64
2023/02/09 01:15:39;;;;;;;8.25;1.50;;;29.10;99.70;;;;;;5008552;28;20074;-64
2023/02/09 01:18:07;;;;;;;5.93;1.63;;;29.00;98.10;;;;;;5016020;28;20084;-63
2023/02/09 01:20:35;;;;;;;5.32;1.60;;;28.70;99.00;;;;;;5009556;28;20084;-63
2023/02/09 01:23:03;;;;;;;7.38;1.40;;;28.70;98.20;;;;;;5008385;28;20022;-65
2023/02/09 01:25:30;;;;;;;5.80;1.20;;;28.10;99.90;;;;;;5009983;28;20502;-62
2023/02/09 01:27:58;;;;;;;10.25;1.77;;;28.00;99.90;;;;;;5009788;28;20018;-63
2023/02/09 01:30:26;;;;;;;6.47;2.17;;;28.00;99.90;;;;;;5007839;28;20631;-63
2023/02/09 01:32:53;;;;;;;4.85;1.17;;;28.20;99.90;;;;;;5011064;28;20026;-62
2023/02/09 01:35:20;;;;;;;5.30;1.65;;;28.30;99.90;;;;;;5007884;28;20368;-63
2023/02/09 01:37:47;;;;;;;6.10;1.33;;;28.70;98.70;;;;;;5009836;28;20427;-62
2023/02/09 01:40:15;;;;;;;7.40;1.88;;;29.00;98.20;;;;;;5014339;28;20032;-62
2023/02/09 01:42:42;;;;;;;4.68;1.40;;;29.40;96.70;;;;;;5007336;28;20053;-62
2023/02/09 01:45:24;;;;;;;8.82;1.95;;;29.50;97.50;;;;;;5008068;28;20088;-63
2023/02/09 01:48:00;;;;;;;7.13;2.10;;;29.70;95.00;;;;;;5013874;28;20025;-63
2023/02/09 01:50:33;;;;;;;5.43;1.30;;;29.60;95.00;;;;;;5011532;28;20150;-63
2023/02/09 01:53:01;;;;;;;10.05;1.73;;;29.60;96.80;;;;;;5002818;28;20026;-62
2023/02/09 01:55:32;;;;;;;7.75;1.95;;;30.00;96.30;;;;;;5013823;28;20056;-63
2023/02/09 01:58:20;;;;;;;3.53;1.60;;;30.10;94.50;;;;;;5013163;28;20026;-63
2023/02/09 02:00:48;;;;;;;6.38;1.52;;;30.10;92.80;;;;;;4994058;28;20041;-63
2023/02/09 02:03:20;;;;;;;7.07;2.00;;;29.80;91.80;;;;;;5008312;28;20117;-62
2023/02/09 02:05:52;;;;;;;7.10;2.05;;;29.50;93.90;;;;;;5014953;28;20026;-63
2023/02/09 02:08:33;;;;;;;5.90;1.98;;;29.40;94.90;;;;;;5015883;28;20083;-60
2023/02/09 02:11:02;;;;;;;5.22;2.20;;;29.30;94.50;;;;;;5009988;28;20042;-61
2023/02/09 02:13:29;;;;;;;5.60;2.20;;;29.20;95.00;;;;;;5012180;28;20070;-60
2023/02/09 02:16:49;;;;;;;7.78;2.17;;;29.10;95.20;;;;;;5007333;28;20513;-60
2023/02/09 02:19:28;;;;;;;3.67;1.73;;;29.20;95.70;;;;;;5015460;28;20403;-60
2023/02/09 02:22:19;;;;;;;4.00;1.45;;;29.30;96.30;;;;;;5016286;28;20064;-60
2023/02/09 02:25:22;;;;;;;6.65;1.70;;;29.40;96.20;;;;;;5016191;28;20032;-61
2023/02/09 02:28:08;;;;;;;6.72;2.30;;;29.60;96.00;;;;;;5012048;28;20022;-60
2023/02/09 02:30:57;;;;;;;8.52;1.67;;;29.70;96.40;;;;;;5027819;28;20048;-60
2023/02/09 02:33:52;;;;;;;5.88;2.17;;;30.10;95.00;;;;;;5028002;28;20033;-60
2023/02/09 02:36:34;;;;;;;8.10;1.60;;;30.50;95.70;;;;;;5005898;28;20026;-60
2023/02/09 02:39:26;;;;;;;4.57;1.92;;;30.90;93.10;;;;;;5011618;28;20034;-60
2023/02/09 02:45:24;;;;;;;10.27;1.73;;;31.10;92.80;;;;;;5003641;28;20044;-60
2023/02/09 02:48:26;;;;;;;9.43;2.35;;;31.10;93.00;;;;;;4980216;28;20121;-61
2023/02/09 02:51:14;;;;;;;6.03;3.25;;;30.80;92.40;;;;;;5013556;28;20155;-60
2023/02/09 02:53:47;;;;;;;5.55;2.55;;;30.20;93.20;;;;;;5021785;28;20099;-60
2023/02/09 02:56:20;;;;;;;7.30;3.42;;;29.80;94.00;;;;;;5022711;28;20032;-60
2023/02/09 02:58:50;;;;;;;5.15;2.60;;;29.50;95.40;;;;;;5021137;28;20086;-60
2023/02/09 03:01:21;;;;;;;5.45;2.72;;;29.30;96.80;;;;;;5018527;28;20031;-60
2023/02/09 03:03:49;;;;;;;6.50;2.70;;;29.10;96.30;;;;;;5023313;28;20393;-60
2023/02/09 03:06:17;;;;;;;5.60;2.97;;;28.90;95.80;;;;;;5020665;28;20025;-59
2023/02/09 03:08:51;;;;;;;7.63;3.63;;;28.60;96.50;;;;;;5021854;28;20482;-60
2023/02/09 03:11:21;;;;;;;8.07;3.53;;;28.20;98.20;;;;;;5012218;28;20056;-60
2023/02/09 03:13:51;;;;;;;6.85;3.50;;;27.80;99.10;;;;;;5008582;28;20087;-59
2023/02/09 03:16:40;;;;;;;6.60;3.65;;;27.60;99.30;;;;;;5010092;28;20118;-59
2023/02/09 03:19:48;;;;;;;13.00;4.25;;;27.40;99.90;;;;;;5010271;28;20026;-59
2023/02/09 03:22:35;;;;;;;9.25;3.25;;;27.00;99.90;;;;;;5012072;28;20034;-60
2023/02/09 03:25:16;;;;;;;8.23;3.35;;;26.60;99.90;;;;;;5005431;28;20079;-60
2023/02/09 03:28:15;;;;;;;8.55;3.42;;;26.40;99.90;;;;;;5010150;28;20561;-60
2023/02/09 03:30:45;;;;;;;7.05;2.67;;;26.50;99.90;;;;;;5007063;28;20471;-59
2023/02/09 03:33:26;;;;;;;8.93;3.30;;;26.80;99.90;;;;;;5009616;28;20022;-59
2023/02/09 03:35:58;;;;;;;6.57;2.67;;;27.00;99.90;;;;;;5017936;28;20108;-58
2023/02/09 03:38:26;;;;;;;7.32;3.20;;;27.30;99.90;;;;;;5011683;28;20026;-59
2023/02/09 03:40:54;;;;;;;7.95;2.92;;;27.00;99.90;;;;;;5010226;28;20029;-59
2023/02/09 03:44:25;;;;;;;5.45;3.22;;;26.80;99.90;;;;;;5009051;28;20025;-60
2023/02/09 03:46:09;;;;;;;5.68;3.45;;;26.60;99.90;;;;;;5004711;28;20038;-60
2023/02/09 03:48:36;;;;;;;7.43;3.63;;;26.40;99.90;;;;;;5012520;28;20030;-60
2023/02/09 03:51:05;;;;;;;5.28;3.70;;;26.40;99.90;;;;;;5020110;28;20057;-60
2023/02/09 03:53:36;;;;;;;8.90;3.30;;;26.50;99.90;;;;;;5013401;28;20022;-60
2023/02/09 03:56:08;;;;;;;6.95;3.05;;;26.40;99.90;;;;;;5001396;28;20049;-60
2023/02/09 03:58:36;;;;;;;4.32;2.30;;;26.30;99.90;;;;;;5013110;28;20060;-60
2023/02/09 04:01:08;;;;;;;4.85;1.88;;;26.30;99.90;;;;;;5009126;28;20030;-59
2023/02/09 04:03:38;;;;;;;4.78;1.55;;;26.20;99.90;;;;;;5012090;28;20033;-60
2023/02/09 04:06:06;;;;;;;2.97;1.20;;;26.10;99.90;;;;;;5016776;28;20071;-59
2023/02/09 04:08:33;;;;;;;2.00;1.17;;;26.00;99.90;;;;;;5012326;28;20034;-59
2023/02/09 04:11:00;;;;;;;2.17;0.90;;;26.00;99.90;;;;;;5012847;28;20034;-60
2023/02/09 04:13:28;;;;;;;1.85;0.65;;;26.10;99.90;;;;;;5012251;28;20042;-60
2023/02/09 04:15:56;;;;;;;2.25;0.73;;;26.10;99.90;;;;;;5012953;28;20048;-59
2023/02/09 04:18:23;;;;;;;2.50;0.80;;;26.10;99.90;;;;;;5016309;28;20080;-59
2023/02/09 04:20:50;;;;;;;1.45;0.57;;;26.00;99.90;;;;;;5010794;28;20045;-59
2023/02/09 04:23:18;;;;;;;1.08;0.80;;;26.30;99.90;;;;;;5010407;28;20028;-60
2023/02/09 04:25:45;;;;;;;3.15;0.95;;;26.50;99.90;;;;;;5011209;28;20034;-60
2023/02/09 04:28:12;;;;;;;1.52;0.60;;;26.30;99.90;;;;;;5010700;28;20030;-60
2023/02/09 04:30:42;;;;;;;1.80;0.80;;;26.20;99.90;;;;;;5010300;28;20040;-60
2023/02/09 04:33:10;;;;;;;1.92;0.80;;;26.20;99.90;;;;;;5012374;28;20037;-60
2023/02/09 04:35:37;;;;;;;1.33;0.60;;;26.10;99.90;;;;;;4992420;28;20038;-62
2023/02/09 04:38:05;;;;;;;2.40;0.80;;;26.10;99.90;;;;;;5008329;28;20121;-60
2023/02/09 04:40:33;;;;;;;3.55;1.20;;;26.00;99.90;;;;;;5009599;28;20119;-61
2023/02/09 04:43:00;;;;;;;2.60;1.20;;;26.00;99.90;;;;;;5004080;28;20057;-61
2023/02/09 04:45:27;;;;;;;3.53;1.60;;;26.00;99.90;;;;;;5006949;28;20566;-61
2023/02/09 04:47:54;;;;;;;3.78;1.20;;;26.10;99.90;;;;;;5007646;28;20026;-61
2023/02/09 04:50:22;;;;;;;5.43;1.20;;;26.60;99.90;;;;;;5007626;28;20044;-61
2023/02/09 04:52:49;;;;;;;5.03;1.23;;;27.10;99.90;;;;;;5006649;28;20030;-61
2023/02/09 04:55:16;;;;;;;2.97;1.25;;;27.40;99.90;;;;;;5005655;28;20030;-61
2023/02/09 05:00:29;;;;;;;4.95;1.73;;;27.20;99.90;;;;;;5013372;28;20045;-61
2023/02/09 05:02:56;;;;;;;5.68;1.52;;;27.30;99.90;;;;;;5010081;28;20030;-60
2023/02/09 05:05:24;;;;;;;5.20;1.98;;;27.30;99.90;;;;;;5011376;28;20018;-61
2023/02/09 05:07:51;;;;;;;9.80;2.17;;;27.00;99.90;;;;;;5013521;28;20079;-62
2023/02/09 05:10:19;;;;;;;4.35;1.70;;;26.90;99.90;;;;;;5010238;28;20710;-62
2023/02/09 05:12:46;;;;;;;7.40;1.67;;;26.80;99.90;;;;;;5008266;28;20022;-61
2023/02/09 05:15:14;;;;;;;5.50;1.70;;;26.70;99.90;;;;;;5012856;28;20057;-60
2023/02/09 05:17:41;;;;;;;7.03;1.67;;;26.70;99.90;;;;;;5017432;28;20109;-62
2023/02/09 05:20:09;;;;;;;7.47;2.30;;;26.60;99.90;;;;;;5009346;28;20116;-62
2023/02/09 05:22:37;;;;;;;6.43;2.72;;;26.50;99.90;;;;;;5009669;28;20060;-63
2023/02/09 05:25:05;;;;;;;4.85;2.15;;;26.10;99.90;;;;;;5006890;28;20069;-61
2023/02/09 05:27:35;;;;;;;8.85;2.53;;;25.70;99.90;;;;;;5011253;28;20116;-61
2023/02/09 05:30:03;;;;;;;8.70;2.35;;;25.50;99.90;;;;;;4992758;28;20423;-61
2023/02/09 05:32:30;;;;;;;6.28;2.22;;;25.50;99.90;;;;;;5007952;28;20379;-62
2023/02/09 05:34:57;;;;;;;5.75;2.55;;;25.40;99.90;;;;;;5010650;28;20052;-62
2023/02/09 05:37:25;;;;;;;9.27;3.75;;;25.30;99.90;;;;;;5009677;28;20068;-61
2023/02/09 05:39:52;;;;;;;7.97;2.70;;;25.00;99.90;;;;;;5011888;28;20021;-62
2023/02/09 05:42:20;;;;;;;6.55;2.28;;;25.20;99.90;;;;;;5015647;28;20029;-61
2023/02/09 05:44:49;;;;;;;6.30;2.88;;;25.40;99.90;;;;;;5007409;28;20032;-65
2023/02/09 05:47:19;;;;;;;5.45;2.00;;;25.40;99.90;;;;;;5008124;28;20030;-62
2023/02/09 05:49:47;;;;;;;6.60;1.90;;;25.20;99.90;;;;;;5010272;28;20038;-61
2023/02/09 05:52:16;;;;;;;7.63;2.60;;;25.10;99.90;;;;;;5009096;28;20053;-60
2023/02/09 05:54:46;;;;;;;6.70;1.92;;;25.20;99.90;;;;;;5007459;28;20034;-61
2023/02/09 05:57:13;;;;;;;7.05;2.67;;;25.20;99.90;;;;;;4993476;28;20034;-62
2023/02/09 05:59:41;;;;;;;6.88;2.30;;;25.20;99.90;;;;;;5013999;28;20022;-62
2023/02/09 06:02:09;;;;;;;5.80;2.13;;;25.10;99.90;;;;;;5009421;28;20034;-63
2023/02/09 06:04:37;;;;;;;7.22;2.50;;;25.20;99.90;;;;;;5006576;28;20360;-62
2023/02/09 06:07:04;;;;;;;4.75;1.92;;;25.10;99.90;;;;;;5010268;28;20030;-62
2023/02/09 06:09:31;;;;;;;5.53;1.98;;;24.90;99.90;;;;;;5007535;28;20117;-61
2023/02/09 06:11:58;;;;;;;4.40;2.20;;;24.90;99.90;;;;;;5010014;28;20640;-62
2023/02/09 06:14:26;;;;;;;7.00;2.20;;;24.70;99.90;;;;;;5007711;28;20491;-63
2023/02/09 06:16:53;;;;;;;4.88;2.40;;;24.60;99.90;;;;;;5005927;28;20034;-61
2023/02/09 06:19:21;;;;;;;5.50;2.10;;;24.50;99.90;;;;;;5010815;28;20609;-61
2023/02/09 06:21:49;;;;;;;7.47;2.42;;;24.50;99.90;;;;;;5008682;28;20036;-62
2023/02/09 06:24:16;;;;;;;6.28;2.25;;;24.50;99.90;;;;;;5006736;28;20038;-62
2023/02/09 06:26:44;;;;;;;9.43;2.60;;;24.60;99.90;;;;;;5009932;28;20030;-61
2023/02/09 06:29:11;;;;;;;7.57;2.75;;;24.50;99.90;;;;;;5009564;28;20463;-62
2023/02/09 06:31:40;;;;;;;7.10;2.92;;;24.50;99.90;;;;;;5005159;28;20129;-62
2023/02/09 06:34:08;;;;;;;8.38;2.75;;;24.50;99.90;;;;;;5015821;28;20036;-61
2023/02/09 06:36:36;;;;;;;8.68;2.97;;;24.50;99.90;;;;;;5015854;28;20111;-62
2023/02/09 06:39:08;;;;;;;4.75;2.30;;;24.50;99.90;;;;;;5008687;28;20022;-61
2023/02/09 06:41:35;;;;;;;9.63;3.33;;;24.40;99.90;;;;;;5007996;28;20025;-61
2023/02/09 06:44:03;;;;;;;12.05;2.67;;;24.30;99.90;;;;;;5008872;28;20025;-62
2023/02/09 06:46:30;;;;;;;7.20;2.33;;;24.30;99.90;;;;;;5007944;28;20030;-61
2023/02/09 06:48:58;;;;;;;6.57;2.42;;;24.20;99.90;;;;;;5012588;28;20018;-62
2023/02/09 06:51:25;;;;;;;7.40;2.38;;;24.20;99.90;;;;;;5009411;28;20132;-62
2023/02/09 06:53:52;;;;;;;14.35;2.58;;;24.20;99.90;;;;;;5015742;28;20022;-62
2023/02/09 06:56:20;;;;;;;7.28;2.42;;;24.20;99.90;;;;;;5012893;28;20498;-61
2023/02/09 06:58:47;;;;;;;7.47;2.60;;;24.10;99.90;;;;;;5013867;28;20045;-62
2023/02/09 07:01:15;;;;;;;8.10;2.90;;;23.90;99.90;;;;;;5016054;28;20430;-61
2023/02/09 07:03:43;;;;;;;6.15;2.55;;;23.90;99.90;;;;;;5011376;28;20025;-64
2023/02/09 07:06:14;;;;;;;7.03;2.63;;;24.00;99.90;;;;;;5007159;28;20401;-60
2023/02/09 07:08:42;;;;;;;7.72;2.72;;;24.00;99.90;;;;;;5005846;28;20072;-65
2023/02/09 07:11:14;;;;;;;8.02;2.50;;;24.10;99.90;;;;;;5008727;28;20117;-63
2023/02/09 07:13:42;;;;;;;11.38;2.30;;;24.20;99.90;;;;;;5013190;28;20510;-61
2023/02/09 07:16:10;;;;;;;9.63;2.67;;;24.20;99.90;;;;;;5013030;28;20037;-63
2023/02/09 07:18:38;;;;;;;12.18;2.60;;;24.20;99.90;;;;;;5001409;28;20026;-63
2023/02/09 07:21:11;;;;;;;3.58;2.33;;;24.10;99.90;;;;;;5024551;28;20083;-63
2023/02/09 07:23:39;;;;;;;6.18;2.22;;;24.10;99.90;;;;;;5026035;28;20395;-62
2023/02/09 07:26:09;;;;;;;10.95;2.60;;;23.90;99.90;;;;;;5009176;28;20487;-63
2023/02/09 07:28:37;;;;;;;7.63;3.03;;;23.90;99.90;;;;;;5018882;28;20034;-62
2023/02/09 07:31:07;;;;;;;11.02;2.75;;;23.90;99.90;;;;;;5006526;28;20529;-61
2023/02/09 07:33:35;;;;;;;7.30;2.47;;;23.80;99.90;;;;;;5012461;28;20053;-61
2023/02/09 07:36:12;;;;;;;6.55;3.40;;;23.70;99.90;;;;;;5020242;28;20536;-61
2023/02/09 07:38:40;;;;;;;7.60;2.58;;;23.70;99.90;;;;;;5015252;28;20041;-61
2023/02/09 07:41:12;;;;;;;8.07;2.97;;;23.70;99.90;;;;;;5018272;28;20034;-60
2023/02/09 07:43:39;;;;;;;8.35;3.05;;;23.70;99.90;;;;;;5013064;28;20032;-61
2023/02/09 07:46:07;;;;;;;7.25;2.53;;;23.70;99.90;;;;;;5009565;28;20112;-61
2023/02/09 07:48:35;;;;;;;9.93;3.22;;;23.70;99.90;;;;;;5010030;28;20037;-62
2023/02/09 07:51:03;;;;;;;6.20;2.47;;;23.70;99.90;;;;;;5013442;28;20036;-61
2023/02/09 07:53:30;;;;;;;9.10;2.85;;;23.60;99.90;;;;;;5016267;28;20029;-61
2023/02/09 07:55:58;;;;;;;9.02;3.00;;;23.60;99.90;;;;;;5006070;28;20622;-62
2023/02/09 07:58:25;;;;;;;8.32;2.88;;;23.60;99.90;;;;;;5011518;28;20018;-62
2023/02/09 08:00:52;;;;;;;9.30;2.95;;;23.50;99.90;;;;;;5011303;28;20084;-62
2023/02/09 08:03:23;;;;;;;15.82;3.90;;;23.50;99.90;;;;;;5010275;28;20029;-61
2023/02/09 08:06:07;;;;;;;8.98;2.72;;;23.40;99.90;;;;;;5011707;28;20042;-61
2023/02/09 08:08:34;;;;;;;8.07;2.50;;;23.30;99.90;;;;;;5020507;28;20022;-62
2023/02/09 08:11:04;;;;;;;10.32;2.67;;;23.20;99.90;;;;;;5010447;28;20072;-61
2023/02/09 08:13:36;;;;;;;11.80;4.00;;;23.10;99.90;;;;;;5015300;28;20076;-62
2023/02/09 08:16:08;;;;;;;9.15;3.13;;;23.00;99.90;;;;;;5005422;28;20033;-63
2023/02/09 08:18:49;;;;;;;6.15;3.75;;;23.00;99.90;;;;;;5007707;28;20061;-63
2023/02/09 08:21:18;;;;;;;9.88;3.83;;;22.90;99.90;;;;;;5004691;28;20058;-61
2023/02/09 08:23:47;;;;;;;13.52;4.25;;;22.90;99.90;;;;;;5014776;28;20022;-63
2023/02/09 08:26:15;;;;;;;12.48;5.45;;;22.90;99.90;;;;;;5007806;28;20034;-62
2023/02/09 08:28:44;;;;;;;15.18;4.90;;;22.80;99.90;;;;;;4990152;28;20422;-62
2023/02/09 08:31:13;;;;;;;16.08;4.85;;;22.80;99.90;;;;;;5008454;28;20124;-63
2023/02/09 08:33:41;;;;;;;16.88;4.82;;;22.70;99.90;;;;;;4990287;28;20109;-63
2023/02/09 08:36:09;;;;;;;10.30;4.95;;;22.70;99.90;;;;;;5005751;28;20091;-62
2023/02/09 08:38:37;;;;;;;9.75;4.03;;;22.60;99.90;;;;;;5007419;28;20471;-64
2023/02/09 08:41:06;;;;;;;9.90;3.63;;;22.60;99.90;;;;;;5014072;28;20073;-63
2023/02/09 08:43:34;;;;;;;9.07;3.33;;;22.50;99.90;;;;;;5007993;28;20025;-63
2023/02/09 08:46:10;;;;;;;9.13;3.25;;;22.50;99.90;;;;;;5010413;28;20096;-63
2023/02/09 08:48:40;;;;;;;10.05;3.83;;;22.50;99.90;;;;;;5008306;28;20112;-62
2023/02/09 08:51:09;;;;;;;15.20;4.93;;;22.40;99.90;;;;;;5009013;28;20509;-62
2023/02/09 08:53:37;;;;;;;13.10;5.03;;;22.40;99.90;;;;;;5010745;28;20030;-63
2023/02/09 08:56:05;;;;;;;11.70;4.10;;;22.30;99.90;;;;;;5013461;28;20030;-63
2023/02/09 08:58:33;;;;;;;10.38;3.80;;;22.20;99.90;;;;;;5004901;28;20033;-63
2023/02/09 09:01:01;;;;;;;8.93;3.38;;;22.20;99.90;;;;;;5006815;28;20037;-63
2023/02/09 09:03:31;;;;;;;8.45;3.55;;;22.10;99.90;;;;;;5004816;28;20682;-62
2023/02/09 09:05:59;;;;;;;7.45;2.60;;;22.10;99.90;;;;;;5012433;28;20740;-62
2023/02/09 09:08:28;;;;;;;6.65;2.83;;;22.00;99.90;;;;;;5013658;28;20101;-63
2023/02/09 09:10:55;;;;;;;6.88;2.65;;;21.90;99.90;;;;;;5006723;28;20045;-62
2023/02/09 09:13:24;;;;;;;7.82;2.72;;;21.80;99.90;;;;;;5005764;28;20497;-62
2023/02/09 09:15:52;;;;;;;7.15;3.15;;;21.70;99.90;;;;;;5007974;28;20552;-63
2023/02/09 09:18:20;;;;;;;6.32;2.83;;;21.60;99.90;;;;;;5003560;28;20029;-63
2023/02/09 09:20:48;;;;;;;13.52;3.15;;;21.50;99.90;;;;;;5006862;28;20685;-62
2023/02/09 09:23:15;;;;;;;8.50;2.65;;;21.50;99.90;;;;;;5008902;28;20049;-63
2023/02/09 09:25:43;;;;;;;8.13;3.53;;;21.40;99.90;;;;;;5013356;28;20144;-62
2023/02/09 09:28:10;;;;;;;8.18;3.55;;;21.30;99.90;;;;;;4989433;28;20038;-63
2023/02/09 09:30:38;;;;;;;6.63;4.18;;;21.30;99.90;;;;;;5006757;28;20030;-63
2023/02/09 09:33:05;;;;;;;7.75;3.92;;;21.20;99.90;;;;;;4990989;28;20395;-62
2023/02/09 09:35:32;;;;;;;8.18;4.32;;;21.10;99.90;;;;;;5007410;28;20096;-63
2023/02/09 09:38:00;;;;;;;7.82;3.92;;;21.00;99.90;;;;;;5008762;28;20403;-62
2023/02/09 09:40:34;;;;;;;8.75;4.47;;;21.00;99.90;;;;;;5008214;28;20095;-63
2023/02/09 09:43:23;;;;;;;7.75;3.63;;;21.00;99.90;;;;;;5010416;28;20026;-62
2023/02/09 09:45:50;;;;;;;7.18;4.13;;;20.90;99.90;;;;;;5009126;28;20045;-61
2023/02/09 09:48:36;;;;;;;6.38;3.47;;;20.90;99.90;;;;;;5008847;28;20026;-62
2023/02/09 09:51:30;;;;;;;7.82;3.70;;;21.00;99.90;;;;;;5005479;28;20048;-63
2023/02/09 09:54:00;;;;;;;4.82;3.33;;;20.90;99.90;;;;;;5011494;28;20037;-63
2023/02/09 09:56:29;;;;;;;9.68;3.50;;;20.90;99.90;;;;;;5016419;28;20022;-62
2023/02/09 09:58:58;;;;;;;9.93;4.93;;;20.90;99.90;;;;;;5015072;28;20172;-63
2023/02/09 10:01:29;;;;;;;8.60;3.85;;;20.90;99.90;;;;;;5008120;28;20026;-63
2023/02/09 10:04:06;;;;;;;6.55;3.50;;;20.80;99.90;;;;;;5002342;28;20038;-63
2023/02/09 10:06:33;;;;;;;6.32;3.15;;;20.80;99.90;;;;;;5007127;28;20041;-63
2023/02/09 10:09:20;;;;;;;7.57;3.40;;;20.80;99.90;;;;;;5007332;28;20033;-64
2023/02/09 10:12:02;;;;;;;5.72;3.45;;;20.70;99.90;;;;;;5010825;28;20402;-63
2023/02/09 10:14:30;;;;;;;4.80;3.20;;;20.70;99.90;;;;;;5007880;28;20048;-63
2023/02/09 10:16:57;;;;;;;5.10;3.40;;;20.70;99.90;;;;;;5011564;28;20099;-63
2023/02/09 10:19:29;;;;;;;7.20;3.75;;;20.70;99.90;;;;;;5008179;28;20018;-63
2023/02/09 10:21:56;;;;;;;6.85;3.60;;;20.70;99.90;;;;;;5015837;28;20732;-63
2023/02/09 10:24:35;;;;;;;5.88;4.28;;;20.60;99.90;;;;;;5019197;28;20117;-63
2023/02/09 10:27:07;;;;;;;9.02;4.45;;;20.60;99.90;;;;;;5011060;28;20034;-63
2023/02/09 10:29:35;;;;;;;9.82;4.93;;;20.60;99.90;;;;;;5007733;28;20030;-63
2023/02/09 10:32:07;;;;;;;8.73;4.72;;;20.50;99.90;;;;;;5022334;28;20064;-64
2023/02/09 10:34:50;;;;;;;7.32;4.00;;;20.40;99.90;;;;;;5004534;28;20055;-61
2023/02/09 10:37:33;;;;;;;5.85;4.20;;;20.40;99.90;;;;;;5002604;28;20463;-61
2023/02/09 10:40:16;;;;;;;7.32;3.90;;;20.30;99.90;;;;;;5020762;28;20033;-61
2023/02/09 10:42:57;;;;;;;8.00;3.75;;;20.30;99.90;;;;;;5009919;28;20085;-61
2023/02/09 10:45:38;;;;;;;6.78;2.78;;;20.20;99.90;;;;;;5021057;28;20486;-61
2023/02/09 10:48:11;;;;;;;12.45;3.92;;;20.20;99.90;;;;;;5009912;28;20494;-62
2023/02/09 10:51:07;;;;;;;5.82;4.13;;;20.10;99.90;;;;;;5015307;28;20108;-61
2023/02/09 10:53:37;;;;;;;5.90;3.55;;;20.10;99.90;;;;;;5016355;28;20030;-61
2023/02/09 10:56:19;;;;;;;10.13;4.00;;;20.10;99.90;;;;;;5017181;28;20090;-61
2023/02/09 10:58:59;;;;;;;6.70;3.28;;;20.10;99.90;;;;;;5025407;28;20083;-62
2023/02/09 11:01:40;;;;;;;5.38;3.67;;;20.00;99.90;;;;;;5014820;28;20029;-63
2023/02/09 11:04:47;;;;;;;6.70;3.38;;;20.00;99.90;;;;;;5026379;28;20057;-62
2023/02/09 11:07:19;;;;;;;5.50;3.15;;;20.00;99.90;;;;;;5014003;28;20038;-62
2023/02/09 11:09:50;;;;;;;8.27;4.10;;;19.90;99.90;;;;;;5015314;28;20065;-62
2023/02/09 11:12:21;;;;;;;11.90;3.70;;;19.90;99.90;;;;;;5023629;28;20036;-62
2023/02/09 11:14:49;;;;;;;10.60;3.78;;;19.90;99.90;;;;;;5009194;28;20085;-62
2023/02/09 11:17:38;;;;;;;5.10;3.10;;;19.90;99.90;;;;;;5023068;28;20513;-62
2023/02/09 11:20:43;;;;;;;7.75;3.63;;;19.80;99.90;;;;;;5003711;28;20022;-61
2023/02/09 11:23:37;;;;;;;9.07;3.30;;;19.90;99.90;;;;;;5015439;28;20029;-61
2023/02/09 11:26:08;;;;;;;7.07;3.53;;;19.90;99.90;;;;;;5012149;28;20026;-60
2023/02/09 11:28:44;;;;;;;9.60;3.60;;;19.90;99.90;;;;;;5012892;28;20038;-61
2023/02/09 11:31:36;;;;;;;6.80;3.00;;;19.80;99.90;;;;;;5008485;28;20049;-61
2023/02/09 11:34:41;;;;;;;9.10;3.63;;;19.70;99.90;;;;;;5006097;28;20021;-60
2023/02/09 11:37:18;;;;;;;7.32;4.28;;;19.70;99.90;;;;;;5007637;28;20036;-61
2023/02/09 11:40:16;;;;;;;13.52;3.72;;;19.70;99.90;;;;;;5015516;28;20113;-60
2023/02/09 11:43:14;;;;;;;6.72;3.70;;;19.60;99.90;;;;;;5020718;28;20014;-60
2023/02/09 11:45:51;;;;;;;11.40;3.58;;;19.60;99.90;;;;;;5020508;28;20024;-60
2023/02/09 11:48:46;;;;;;;6.70;3.05;;;19.50;99.90;;;;;;5020932;28;20087;-60
2023/02/09 11:51:15;;;;;;;;;;;19.50;99.90;;;;;;5018328;28;20583;-61
2023/02/09 11:53:45;;;;;;;6.10;3.22;;;19.50;99.90;;;;;;5023828;28;19996;-61
2023/02/09 11:56:15;;;;;;;7.75;3.10;;;19.40;99.90;;;;;;5014000;28;20026;-61
2023/02/09 11:58:43;;;;;;;5.47;2.53;;;19.40;99.90;;;;;;5009278;28;20018;-61
2023/02/09 12:01:37;;;;;;;6.30;3.20;;;19.40;99.90;;;;;;5009869;28;20022;-60
2023/02/09 12:04:29;;;;;;;7.30;2.85;;;19.40;99.90;;;;;;5013201;28;20021;-61
2023/02/09 12:07:30;;;;;;;9.25;3.75;;;19.40;99.90;;;;;;5021255;28;20029;-61
2023/02/09 12:10:19;;;;;;;6.00;2.90;;;19.30;99.90;;;;;;4969717;28;20050;-60
2023/02/09 12:12:57;;;;;;;5.85;3.30;;;19.30;99.90;;;;;;5008579;28;20033;-60
2023/02/09 12:15:31;;;;;;;7.75;3.22;;;19.20;99.90;;;;;;5016954;28;20041;-61
2023/02/09 12:18:24;;;;;;;10.48;3.78;;;19.10;99.90;;;;;;5010302;28;20032;-60
2023/02/09 12:20:56;;;;;;;7.35;3.50;;;19.10;99.90;;;;;;5013935;28;20026;-60
2023/02/09 12:23:42;;;;;;;7.03;3.20;;;19.00;99.90;;;;;;5013613;28;20108;-61
2023/02/09 12:26:12;;;;;;;7.53;3.50;;;18.90;99.90;;;;;;5014503;28;20048;-61
2023/02/09 12:28:40;;;;;;;5.43;3.45;;;18.80;99.90;;;;;;5025962;28;20028;-61
2023/02/09 12:31:11;;;;;;;10.75;3.65;;;18.80;99.90;;;;;;5021681;28;20465;-60
2023/02/09 12:33:47;;;;;;;6.93;2.90;;;18.70;99.90;;;;;;5020440;28;20627;-61
2023/02/09 12:36:15;;;;;;;4.97;3.13;;;18.60;99.90;;;;;;5021086;28;20040;-61
2023/02/09 12:39:04;;;;;;;9.40;3.20;;;18.70;99.90;;;;;;5015886;28;20387;-61
2023/02/09 12:41:34;;;;;;;11.13;3.65;;;18.60;99.90;;;;;;5020260;28;20040;-60
2023/02/09 12:44:10;;;;;;;5.35;3.60;;;18.50;99.90;;;;;;5013957;28;20017;-60
2023/02/09 12:46:57;;;;;;;10.90;4.03;;;18.40;99.90;;;;;;5023261;28;20028;-61
2023/02/09 12:49:27;;;;;;;7.80;4.10;;;18.50;99.90;;;;;;5011547;28;20479;-61
2023/02/09 12:52:01;;;;;;;8.60;3.70;;;18.50;99.90;;;;;;4995765;28;20076;-61
2023/02/09 12:54:48;;;;;;;8.60;4.10;;;18.50;99.90;;;;;;5019959;28;20029;-61
2023/02/09 12:57:16;;;;;;;11.38;4.50;;;18.40;99.90;;;;;;5010410;28;20395;-62
2023/02/09 12:59:54;;;;;;;14.60;5.38;;;18.40;99.90;;;;;;4997502;28;20030;-62
2023/02/09 13:02:49;;;;;;;11.65;4.68;;;18.40;99.90;;;;;;5010198;28;20551;-62
2023/02/09 13:05:36;;;;;;;10.27;4.93;;;18.30;99.90;;;;;;4990980;28;20088;-62
2023/02/09 13:08:20;;;;;;;8.50;4.35;;;18.30;99.90;;;;;;4991189;28;20022;-60
2023/02/09 13:10:55;;;;;;;8.15;4.10;;;18.30;99.90;;;;;;4991074;28;20070;-61
2023/02/09 13:13:52;;;;;;;10.38;4.30;;;18.30;99.90;;;;;;4990289;28;20054;-61
2023/02/09 13:16:25;;;;;;;12.30;5.05;;;18.40;99.90;;;;;;4975320;28;20042;-61
2023/02/09 13:19:31;;;;;;;12.23;5.57;;;18.40;99.90;;;;;;5010210;28;20507;-61
2023/02/09 13:22:13;;;;;;;12.38;4.50;;;18.40;99.90;;;;;;4996467;28;20041;-61